sensor_id;sensor_type;location;lat;lon;timestamp;temperature;humidity
11242;DHT22;5678;52.370;9.006;2022-09-20T00:01:08;9.40;99.90
11242;DHT22;5678;52.370;9.006;2022-09-20T00:03:37;9.50;99.90
11242;DHT22;5678;52.370;9.006;2022-09-20T00:06:08;9.50;99.90
11242;DHT22;5678;52.370;9.006;2022-09-20T00:08:36;9.80;99.90
11242;DHT22;5678;52.370;9.006;2022-09-20T00:11:07;9.40;99.90
11242;DHT22;5678;52.370;9.006;2022-09-20T00:13:36;9.40;99.90
11242;DHT22;5678;52.370;9.006;2022-09-20T00:16:07;9.40;99.90
11242;DHT22;5678;52.370;9.006;2022-09-20T00:18:37;9.40;99.90
11242;DHT22;5678;52.370;9.006;2022-09-20T00:21:05;9.40;99.90
11242;DHT22;5678;52.370;9.006;2022-09-20T00:23:33;9.50;99.90
11242;DHT22;5678;52.370;9.006;2022-09-20T00:26:03;9.30;99.90
11242;DHT22;5678;52.370;9.006;2022-09-20T00:28:31;9.30;99.90
11242;DHT22;5678;52.370;9.006;2022-09-20T00:30:59;9.30;99.90
11242;DHT22;5678;52.370;9.006;2022-09-20T00:33:29;9.20;99.90
11242;DHT22;5678;52.370;9.006;2022-09-20T00:36:11;9.30;99.90
11242;DHT22;5678;52.370;9.006;2022-09-20T00:38:39;9.40;99.90
11242;DHT22;5678;52.370;9.006;2022-09-20T00:41:08;9.30;99.90
11242;DHT22;5678;52.370;9.006;2022-09-20T00:43:38;9.30;99.90
11242;DHT22;5678;52.370;9.006;2022-09-20T00:46:17;9.30;99.90
11242;DHT22;5678;52.370;9.006;2022-09-20T00:48:49;9.30;99.90
11242;DHT22;5678;52.370;9.006;2022-09-20T00:51:22;9.20;99.90
11242;DHT22;5678;52.370;9.006;2022-09-20T00:53:53;9.20;99.90
11242;DHT22;5678;52.370;9.006;2022-09-20T00:56:25;9.20;99.90
11242;DHT22;5678;52.370;9.006;2022-09-20T00:59:01;9.10;99.90
11242;DHT22;5678;52.370;9.006;2022-09-20T01:01:32;9.10;99.90
11242;DHT22;5678;52.370;9.006;2022-09-20T01:04:02;9.00;99.90
11242;DHT22;5678;52.370;9.006;2022-09-20T01:06:31;9.00;99.90
11242;DHT22;5678;52.370;9.006;2022-09-20T01:09:02;9.60;99.90
11242;DHT22;5678;52.370;9.006;2022-09-20T01:11:31;8.70;99.90
11242;DHT22;5678;52.370;9.006;2022-09-20T01:14:00;9.00;99.90
11242;DHT22;5678;52.370;9.006;2022-09-20T01:16:29;9.00;99.90
11242;DHT22;5678;52.370;9.006;2022-09-20T01:19:04;8.80;99.90
11242;DHT22;5678;52.370;9.006;2022-09-20T01:21:35;8.90;99.90
11242;DHT22;5678;52.370;9.006;2022-09-20T01:24:06;8.90;99.90
11242;DHT22;5678;52.370;9.006;2022-09-20T01:27:04;8.90;99.90
11242;DHT22;5678;52.370;9.006;2022-09-20T01:30:00;8.80;99.90
11242;DHT22;5678;52.370;9.006;2022-09-20T01:32:36;8.80;99.90
11242;DHT22;5678;52.370;9.006;2022-09-20T01:35:09;8.60;99.90
11242;DHT22;5678;52.370;9.006;2022-09-20T01:37:45;8.70;99.90
11242;DHT22;5678;52.370;9.006;2022-09-20T01:40:22;8.60;99.90
11242;DHT22;5678;52.370;9.006;2022-09-20T01:43:00;9.00;99.90
11242;DHT22;5678;52.370;9.006;2022-09-20T01:45:32;8.50;99.90
11242;DHT22;5678;52.370;9.006;2022-09-20T01:48:08;8.50;99.90
11242;DHT22;5678;52.370;9.006;2022-09-20T01:50:54;9.50;99.90
11242;DHT22;5678;52.370;9.006;2022-09-20T01:54:12;8.50;99.90
11242;DHT22;5678;52.370;9.006;2022-09-20T01:57:11;8.40;99.90
11242;DHT22;5678;52.370;9.006;2022-09-20T02:00:05;8.30;99.90
11242;DHT22;5678;52.370;9.006;2022-09-20T02:06:21;8.30;99.90
11242;DHT22;5678;52.370;9.006;2022-09-20T02:09:16;8.20;99.90
11242;DHT22;5678;52.370;9.006;2022-09-20T02:11:56;8.30;99.90
11242;DHT22;5678;52.370;9.006;2022-09-20T02:14:32;8.10;99.90
11242;DHT22;5678;52.370;9.006;2022-09-20T02:17:10;8.10;99.90
11242;DHT22;5678;52.370;9.006;2022-09-20T02:19:49;8.10;99.90
11242;DHT22;5678;52.370;9.006;2022-09-20T02:22:42;8.10;99.90
11242;DHT22;5678;52.370;9.006;2022-09-20T02:25:20;8.40;99.90
11242;DHT22;5678;52.370;9.006;2022-09-20T02:27:58;8.00;99.90
11242;DHT22;5678;52.370;9.006;2022-09-20T02:30:42;8.10;99.90
11242;DHT22;5678;52.370;9.006;2022-09-20T02:33:27;8.10;99.90
11242;DHT22;5678;52.370;9.006;2022-09-20T02:36:12;8.10;99.90
11242;DHT22;5678;52.370;9.006;2022-09-20T02:38:53;8.10;99.90
11242;DHT22;5678;52.370;9.006;2022-09-20T02:41:58;8.20;99.90
11242;DHT22;5678;52.370;9.006;2022-09-20T02:44:44;8.30;99.90
11242;DHT22;5678;52.370;9.006;2022-09-20T02:47:19;8.40;99.90
11242;DHT22;5678;52.370;9.006;2022-09-20T02:50:04;8.50;99.90
11242;DHT22;5678;52.370;9.006;2022-09-20T02:52:42;8.60;99.90
11242;DHT22;5678;52.370;9.006;2022-09-20T02:55:17;8.60;99.90
11242;DHT22;5678;52.370;9.006;2022-09-20T02:57:51;8.60;99.90
11242;DHT22;5678;52.370;9.006;2022-09-20T03:00:22;8.60;99.90
11242;DHT22;5678;52.370;9.006;2022-09-20T03:03:03;8.60;99.90
11242;DHT22;5678;52.370;9.006;2022-09-20T03:05:44;8.60;99.90
11242;DHT22;5678;52.370;9.006;2022-09-20T03:08:27;8.60;99.90
11242;DHT22;5678;52.370;9.006;2022-09-20T03:11:06;8.70;99.90
11242;DHT22;5678;52.370;9.006;2022-09-20T03:13:54;9.00;99.90
11242;DHT22;5678;52.370;9.006;2022-09-20T03:16:33;8.70;99.90
11242;DHT22;5678;52.370;9.006;2022-09-20T03:19:16;8.70;99.90
11242;DHT22;5678;52.370;9.006;2022-09-20T03:21:51;8.60;99.90
11242;DHT22;5678;52.370;9.006;2022-09-20T03:24:32;8.60;99.90
11242;DHT22;5678;52.370;9.006;2022-09-20T03:27:15;8.50;99.90
11242;DHT22;5678;52.370;9.006;2022-09-20T03:29:57;8.50;99.90
11242;DHT22;5678;52.370;9.006;2022-09-20T03:32:41;8.50;99.90
11242;DHT22;5678;52.370;9.006;2022-09-20T03:35:26;8.60;99.90
11242;DHT22;5678;52.370;9.006;2022-09-20T03:38:09;8.60;99.90
11242;DHT22;5678;52.370;9.006;2022-09-20T03:40:55;8.60;99.90
11242;DHT22;5678;52.370;9.006;2022-09-20T03:43:37;8.70;99.90
11242;DHT22;5678;52.370;9.006;2022-09-20T03:46:16;8.40;99.90
11242;DHT22;5678;52.370;9.006;2022-09-20T03:49:04;8.40;99.90
11242;DHT22;5678;52.370;9.006;2022-09-20T03:51:44;8.60;99.90
11242;DHT22;5678;52.370;9.006;2022-09-20T03:54:41;9.20;99.90
11242;DHT22;5678;52.370;9.006;2022-09-20T03:57:49;8.70;99.90
11242;DHT22;5678;52.370;9.006;2022-09-20T04:00:33;8.70;99.90
11242;DHT22;5678;52.370;9.006;2022-09-20T04:03:22;8.70;99.90
11242;DHT22;5678;52.370;9.006;2022-09-20T04:06:09;8.70;99.90
11242;DHT22;5678;52.370;9.006;2022-09-20T04:08:51;8.80;99.90
11242;DHT22;5678;52.370;9.006;2022-09-20T04:11:26;8.80;99.90
11242;DHT22;5678;52.370;9.006;2022-09-20T04:14:02;8.60;99.90
11242;DHT22;5678;52.370;9.006;2022-09-20T04:16:40;8.70;99.90
11242;DHT22;5678;52.370;9.006;2022-09-20T04:19:16;8.90;99.90
11242;DHT22;5678;52.370;9.006;2022-09-20T04:21:48;8.80;99.90
11242;DHT22;5678;52.370;9.006;2022-09-20T04:24:22;8.60;99.90
11242;DHT22;5678;52.370;9.006;2022-09-20T04:26:57;8.90;99.90
11242;DHT22;5678;52.370;9.006;2022-09-20T04:29:35;10.00;99.90
11242;DHT22;5678;52.370;9.006;2022-09-20T04:32:13;8.80;99.90
11242;DHT22;5678;52.370;9.006;2022-09-20T04:34:46;8.60;99.90
11242;DHT22;5678;52.370;9.006;2022-09-20T04:37:35;8.70;99.90
11242;DHT22;5678;52.370;9.006;2022-09-20T04:40:24;8.60;99.90
11242;DHT22;5678;52.370;9.006;2022-09-20T04:46:34;8.50;99.90
11242;DHT22;5678;52.370;9.006;2022-09-20T04:49:55;8.50;99.90
11242;DHT22;5678;52.370;9.006;2022-09-20T04:53:14;8.50;99.90
11242;DHT22;5678;52.370;9.006;2022-09-20T04:55:54;8.40;99.90
11242;DHT22;5678;52.370;9.006;2022-09-20T04:58:45;8.50;99.90
11242;DHT22;5678;52.370;9.006;2022-09-20T05:08:26;8.30;99.90
11242;DHT22;5678;52.370;9.006;2022-09-20T05:11:23;8.20;99.90
11242;DHT22;5678;52.370;9.006;2022-09-20T05:14:04;8.10;99.90
11242;DHT22;5678;52.370;9.006;2022-09-20T05:16:52;8.00;99.90
11242;DHT22;5678;52.370;9.006;2022-09-20T05:19:27;8.00;99.90
11242;DHT22;5678;52.370;9.006;2022-09-20T05:25:15;8.00;99.90
11242;DHT22;5678;52.370;9.006;2022-09-20T05:27:53;7.90;99.90
11242;DHT22;5678;52.370;9.006;2022-09-20T05:30:30;7.90;99.90
11242;DHT22;5678;52.370;9.006;2022-09-20T05:33:09;8.00;99.90
11242;DHT22;5678;52.370;9.006;2022-09-20T05:35:44;7.90;99.90
11242;DHT22;5678;52.370;9.006;2022-09-20T05:38:21;7.80;99.90
11242;DHT22;5678;52.370;9.006;2022-09-20T05:41:05;8.20;99.90
11242;DHT22;5678;52.370;9.006;2022-09-20T05:43:41;8.00;99.90
11242;DHT22;5678;52.370;9.006;2022-09-20T05:46:16;7.90;99.90
11242;DHT22;5678;52.370;9.006;2022-09-20T05:48:54;7.80;99.90
11242;DHT22;5678;52.370;9.006;2022-09-20T05:51:32;8.10;99.90
11242;DHT22;5678;52.370;9.006;2022-09-20T05:54:24;8.10;99.90
11242;DHT22;5678;52.370;9.006;2022-09-20T05:57:06;8.40;99.90
11242;DHT22;5678;52.370;9.006;2022-09-20T05:59:47;8.20;99.90
11242;DHT22;5678;52.370;9.006;2022-09-20T06:02:33;8.30;99.90
11242;DHT22;5678;52.370;9.006;2022-09-20T06:05:11;8.40;99.90
11242;DHT22;5678;52.370;9.006;2022-09-20T06:07:55;8.50;99.90
11242;DHT22;5678;52.370;9.006;2022-09-20T06:10:45;8.70;99.90
11242;DHT22;5678;52.370;9.006;2022-09-20T06:13:33;8.50;99.90
11242;DHT22;5678;52.370;9.006;2022-09-20T06:16:06;8.90;99.90
11242;DHT22;5678;52.370;9.006;2022-09-20T06:18:41;9.00;99.90
11242;DHT22;5678;52.370;9.006;2022-09-20T06:21:20;9.10;99.90
11242;DHT22;5678;52.370;9.006;2022-09-20T06:23:50;10.30;99.90
11242;DHT22;5678;52.370;9.006;2022-09-20T06:26:25;9.40;99.90
11242;DHT22;5678;52.370;9.006;2022-09-20T06:28:59;9.60;99.90
11242;DHT22;5678;52.370;9.006;2022-09-20T06:31:28;9.90;99.90
11242;DHT22;5678;52.370;9.006;2022-09-20T06:33:59;10.10;99.90
11242;DHT22;5678;52.370;9.006;2022-09-20T06:36:31;10.10;99.90
11242;DHT22;5678;52.370;9.006;2022-09-20T06:39:24;10.20;99.90
11242;DHT22;5678;52.370;9.006;2022-09-20T06:42:13;10.70;99.90
11242;DHT22;5678;52.370;9.006;2022-09-20T06:44:43;10.50;99.90
11242;DHT22;5678;52.370;9.006;2022-09-20T06:47:11;10.60;99.90
11242;DHT22;5678;52.370;9.006;2022-09-20T06:49:39;10.60;99.90
11242;DHT22;5678;52.370;9.006;2022-09-20T06:52:11;12.30;99.90
11242;DHT22;5678;52.370;9.006;2022-09-20T06:54:41;10.70;99.90
11242;DHT22;5678;52.370;9.006;2022-09-20T06:57:13;10.70;99.90
11242;DHT22;5678;52.370;9.006;2022-09-20T06:59:44;11.20;99.90
11242;DHT22;5678;52.370;9.006;2022-09-20T07:02:12;10.70;99.90
11242;DHT22;5678;52.370;9.006;2022-09-20T07:04:40;10.90;99.90
11242;DHT22;5678;52.370;9.006;2022-09-20T07:07:15;11.10;99.90
11242;DHT22;5678;52.370;9.006;2022-09-20T07:09:43;10.90;99.90
11242;DHT22;5678;52.370;9.006;2022-09-20T07:12:11;10.90;99.90
11242;DHT22;5678;52.370;9.006;2022-09-20T07:14:39;10.90;99.90
11242;DHT22;5678;52.370;9.006;2022-09-20T07:17:09;10.90;99.90
11242;DHT22;5678;52.370;9.006;2022-09-20T07:19:37;11.00;99.90
11242;DHT22;5678;52.370;9.006;2022-09-20T07:22:05;11.00;99.90
11242;DHT22;5678;52.370;9.006;2022-09-20T07:24:33;11.00;99.90
11242;DHT22;5678;52.370;9.006;2022-09-20T07:27:03;10.70;99.90
11242;DHT22;5678;52.370;9.006;2022-09-20T07:29:31;11.10;99.90
11242;DHT22;5678;52.370;9.006;2022-09-20T07:32:01;12.00;99.90
11242;DHT22;5678;52.370;9.006;2022-09-20T07:34:30;11.30;99.90
11242;DHT22;5678;52.370;9.006;2022-09-20T07:36:58;11.70;99.90
11242;DHT22;5678;52.370;9.006;2022-09-20T07:39:26;11.40;99.90
11242;DHT22;5678;52.370;9.006;2022-09-20T07:41:54;11.50;99.90
11242;DHT22;5678;52.370;9.006;2022-09-20T07:44:22;12.40;99.90
11242;DHT22;5678;52.370;9.006;2022-09-20T07:46:55;11.80;99.90
11242;DHT22;5678;52.370;9.006;2022-09-20T07:49:25;12.30;99.90
11242;DHT22;5678;52.370;9.006;2022-09-20T07:51:57;11.80;99.90
11242;DHT22;5678;52.370;9.006;2022-09-20T07:54:25;11.70;99.90
11242;DHT22;5678;52.370;9.006;2022-09-20T07:56:53;11.90;99.90
11242;DHT22;5678;52.370;9.006;2022-09-20T07:59:21;11.90;99.90
11242;DHT22;5678;52.370;9.006;2022-09-20T08:01:49;12.40;99.90
11242;DHT22;5678;52.370;9.006;2022-09-20T08:04:17;12.00;99.90
11242;DHT22;5678;52.370;9.006;2022-09-20T08:06:45;11.90;99.90
11242;DHT22;5678;52.370;9.006;2022-09-20T08:09:14;11.90;99.90
11242;DHT22;5678;52.370;9.006;2022-09-20T08:11:42;12.00;99.90
11242;DHT22;5678;52.370;9.006;2022-09-20T08:14:13;12.10;99.90
11242;DHT22;5678;52.370;9.006;2022-09-20T08:16:43;12.20;99.90
11242;DHT22;5678;52.370;9.006;2022-09-20T08:19:14;12.70;99.90
11242;DHT22;5678;52.370;9.006;2022-09-20T08:21:43;12.50;99.90
11242;DHT22;5678;52.370;9.006;2022-09-20T08:24:11;12.50;99.90
11242;DHT22;5678;52.370;9.006;2022-09-20T08:26:40;12.70;99.90
11242;DHT22;5678;52.370;9.006;2022-09-20T08:29:09;12.80;99.90
11242;DHT22;5678;52.370;9.006;2022-09-20T08:31:38;13.30;99.90
11242;DHT22;5678;52.370;9.006;2022-09-20T08:34:09;13.10;99.90
11242;DHT22;5678;52.370;9.006;2022-09-20T08:36:39;13.20;99.90
11242;DHT22;5678;52.370;9.006;2022-09-20T08:39:07;13.80;99.90
11242;DHT22;5678;52.370;9.006;2022-09-20T08:42:04;13.70;99.90
11242;DHT22;5678;52.370;9.006;2022-09-20T08:44:40;14.00;99.90
11242;DHT22;5678;52.370;9.006;2022-09-20T08:47:16;14.80;99.90
11242;DHT22;5678;52.370;9.006;2022-09-20T08:49:46;14.60;99.90
11242;DHT22;5678;52.370;9.006;2022-09-20T08:52:16;14.70;99.90
11242;DHT22;5678;52.370;9.006;2022-09-20T08:54:45;14.90;99.90
11242;DHT22;5678;52.370;9.006;2022-09-20T08:57:17;14.60;99.90
11242;DHT22;5678;52.370;9.006;2022-09-20T08:59:47;15.00;99.90
11242;DHT22;5678;52.370;9.006;2022-09-20T09:02:17;14.80;99.90
11242;DHT22;5678;52.370;9.006;2022-09-20T09:04:46;15.60;99.90
11242;DHT22;5678;52.370;9.006;2022-09-20T09:07:17;15.60;99.90
11242;DHT22;5678;52.370;9.006;2022-09-20T09:09:49;15.30;99.90
11242;DHT22;5678;52.370;9.006;2022-09-20T09:12:22;15.50;99.90
11242;DHT22;5678;52.370;9.006;2022-09-20T09:14:50;16.00;99.90
11242;DHT22;5678;52.370;9.006;2022-09-20T09:17:22;15.10;99.90
11242;DHT22;5678;52.370;9.006;2022-09-20T09:19:55;16.10;99.90
11242;DHT22;5678;52.370;9.006;2022-09-20T09:22:27;15.50;99.90
11242;DHT22;5678;52.370;9.006;2022-09-20T09:27:54;15.30;99.90
11242;DHT22;5678;52.370;9.006;2022-09-20T09:30:26;16.20;99.90
11242;DHT22;5678;52.370;9.006;2022-09-20T09:33:16;15.70;99.90
11242;DHT22;5678;52.370;9.006;2022-09-20T09:35:52;15.50;99.90
11242;DHT22;5678;52.370;9.006;2022-09-20T09:38:21;15.70;99.90
11242;DHT22;5678;52.370;9.006;2022-09-20T09:40:51;15.30;99.90
11242;DHT22;5678;52.370;9.006;2022-09-20T09:43:23;15.30;99.90
11242;DHT22;5678;52.370;9.006;2022-09-20T09:45:55;15.10;99.90
11242;DHT22;5678;52.370;9.006;2022-09-20T09:48:25;15.40;99.90
11242;DHT22;5678;52.370;9.006;2022-09-20T09:51:10;15.70;99.90
11242;DHT22;5678;52.370;9.006;2022-09-20T09:53:38;14.60;99.90
11242;DHT22;5678;52.370;9.006;2022-09-20T09:56:28;15.50;99.90
11242;DHT22;5678;52.370;9.006;2022-09-20T10:01:58;14.10;99.90
11242;DHT22;5678;52.370;9.006;2022-09-20T10:04:34;14.10;99.90
11242;DHT22;5678;52.370;9.006;2022-09-20T10:07:08;13.90;99.90
11242;DHT22;5678;52.370;9.006;2022-09-20T10:09:53;13.90;99.90
11242;DHT22;5678;52.370;9.006;2022-09-20T10:12:36;13.60;99.90
11242;DHT22;5678;52.370;9.006;2022-09-20T10:15:20;13.30;99.90
11242;DHT22;5678;52.370;9.006;2022-09-20T10:18:00;13.50;99.90
11242;DHT22;5678;52.370;9.006;2022-09-20T10:20:43;13.00;99.90
11242;DHT22;5678;52.370;9.006;2022-09-20T10:23:36;13.30;99.90
11242;DHT22;5678;52.370;9.006;2022-09-20T10:26:50;13.80;99.90
11242;DHT22;5678;52.370;9.006;2022-09-20T10:29:31;13.30;99.90
11242;DHT22;5678;52.370;9.006;2022-09-20T10:32:11;13.30;99.90
11242;DHT22;5678;52.370;9.006;2022-09-20T10:35:05;13.60;99.90
11242;DHT22;5678;52.370;9.006;2022-09-20T10:37:46;13.60;99.90
11242;DHT22;5678;52.370;9.006;2022-09-20T10:40:22;13.80;99.90
11242;DHT22;5678;52.370;9.006;2022-09-20T10:43:19;13.80;99.90
11242;DHT22;5678;52.370;9.006;2022-09-20T10:45:55;14.40;99.90
11242;DHT22;5678;52.370;9.006;2022-09-20T10:48:53;14.10;99.90
11242;DHT22;5678;52.370;9.006;2022-09-20T10:51:35;14.60;99.90
11242;DHT22;5678;52.370;9.006;2022-09-20T10:54:09;14.50;99.90
11242;DHT22;5678;52.370;9.006;2022-09-20T10:56:44;14.70;99.90
11242;DHT22;5678;52.370;9.006;2022-09-20T10:59:29;14.60;99.90
11242;DHT22;5678;52.370;9.006;2022-09-20T11:02:13;15.00;99.90
11242;DHT22;5678;52.370;9.006;2022-09-20T11:04:59;15.00;99.90
11242;DHT22;5678;52.370;9.006;2022-09-20T11:07:40;15.00;99.90
11242;DHT22;5678;52.370;9.006;2022-09-20T11:10:15;15.10;99.90
11242;DHT22;5678;52.370;9.006;2022-09-20T11:12:50;15.10;99.90
11242;DHT22;5678;52.370;9.006;2022-09-20T11:15:22;15.30;99.90
11242;DHT22;5678;52.370;9.006;2022-09-20T11:17:58;15.50;99.90
11242;DHT22;5678;52.370;9.006;2022-09-20T11:20:32;15.80;99.90
11242;DHT22;5678;52.370;9.006;2022-09-20T11:23:08;16.00;99.90
11242;DHT22;5678;52.370;9.006;2022-09-20T11:25:40;16.20;99.90
11242;DHT22;5678;52.370;9.006;2022-09-20T11:28:14;16.10;99.90
11242;DHT22;5678;52.370;9.006;2022-09-20T11:30:52;16.50;99.90
11242;DHT22;5678;52.370;9.006;2022-09-20T11:33:25;16.50;99.90
11242;DHT22;5678;52.370;9.006;2022-09-20T11:35:57;16.60;99.90
11242;DHT22;5678;52.370;9.006;2022-09-20T11:38:32;16.10;99.90
11242;DHT22;5678;52.370;9.006;2022-09-20T11:41:07;16.60;99.90
11242;DHT22;5678;52.370;9.006;2022-09-20T11:43:38;17.00;99.90
11242;DHT22;5678;52.370;9.006;2022-09-20T11:46:14;16.90;99.90
11242;DHT22;5678;52.370;9.006;2022-09-20T11:48:48;17.30;99.90
11242;DHT22;5678;52.370;9.006;2022-09-20T11:51:33;17.30;99.90
11242;DHT22;5678;52.370;9.006;2022-09-20T11:54:17;17.40;99.90
11242;DHT22;5678;52.370;9.006;2022-09-20T11:56:51;17.50;99.90
11242;DHT22;5678;52.370;9.006;2022-09-20T11:59:32;17.80;99.90
11242;DHT22;5678;52.370;9.006;2022-09-20T12:02:03;17.80;99.90
11242;DHT22;5678;52.370;9.006;2022-09-20T12:04:34;17.70;99.90
11242;DHT22;5678;52.370;9.006;2022-09-20T12:09:45;17.80;99.90
11242;DHT22;5678;52.370;9.006;2022-09-20T12:12:30;17.80;99.90
11242;DHT22;5678;52.370;9.006;2022-09-20T12:15:00;18.00;99.90
11242;DHT22;5678;52.370;9.006;2022-09-20T12:18:01;17.70;99.90
11242;DHT22;5678;52.370;9.006;2022-09-20T12:20:57;17.70;99.90
11242;DHT22;5678;52.370;9.006;2022-09-20T12:26:42;17.30;99.90
11242;DHT22;5678;52.370;9.006;2022-09-20T12:38:50;16.30;99.90
11242;DHT22;5678;52.370;9.006;2022-09-20T12:41:21;17.40;99.90
11242;DHT22;5678;52.370;9.006;2022-09-20T12:44:26;17.40;99.90
11242;DHT22;5678;52.370;9.006;2022-09-20T12:46:57;17.30;99.90
11242;DHT22;5678;52.370;9.006;2022-09-20T12:49:41;17.40;99.90
11242;DHT22;5678;52.370;9.006;2022-09-20T12:52:48;16.20;99.90
11242;DHT22;5678;52.370;9.006;2022-09-20T12:55:35;15.60;99.90
11242;DHT22;5678;52.370;9.006;2022-09-20T12:58:18;15.40;99.90
11242;DHT22;5678;52.370;9.006;2022-09-20T13:01:26;14.80;99.90
11242;DHT22;5678;52.370;9.006;2022-09-20T13:10:27;13.70;99.90
11242;DHT22;5678;52.370;9.006;2022-09-20T13:13:03;13.50;99.90
11242;DHT22;5678;52.370;9.006;2022-09-20T13:15:37;13.60;99.90
11242;DHT22;5678;52.370;9.006;2022-09-20T13:18:10;13.20;99.90
11242;DHT22;5678;52.370;9.006;2022-09-20T13:20:41;13.50;99.90
11242;DHT22;5678;52.370;9.006;2022-09-20T13:23:18;14.00;99.90
11242;DHT22;5678;52.370;9.006;2022-09-20T13:25:49;13.90;99.90
11242;DHT22;5678;52.370;9.006;2022-09-20T13:28:25;13.60;99.90
11242;DHT22;5678;52.370;9.006;2022-09-20T13:31:15;15.20;99.90
11242;DHT22;5678;52.370;9.006;2022-09-20T13:33:48;13.90;99.90
11242;DHT22;5678;52.370;9.006;2022-09-20T13:36:23;13.70;99.90
11242;DHT22;5678;52.370;9.006;2022-09-20T13:38:54;15.40;99.90
11242;DHT22;5678;52.370;9.006;2022-09-20T13:41:27;15.70;99.90
11242;DHT22;5678;52.370;9.006;2022-09-20T13:43:55;14.60;99.90
11242;DHT22;5678;52.370;9.006;2022-09-20T13:46:28;15.50;99.90
11242;DHT22;5678;52.370;9.006;2022-09-20T13:49:08;15.90;99.90
11242;DHT22;5678;52.370;9.006;2022-09-20T13:51:37;15.00;99.90
11242;DHT22;5678;52.370;9.006;2022-09-20T13:54:23;15.20;99.90
11242;DHT22;5678;52.370;9.006;2022-09-20T13:56:54;14.80;99.90
11242;DHT22;5678;52.370;9.006;2022-09-20T13:59:23;13.40;99.90
11242;DHT22;5678;52.370;9.006;2022-09-20T14:01:53;14.70;99.90
11242;DHT22;5678;52.370;9.006;2022-09-20T14:04:23;14.60;99.90
11242;DHT22;5678;52.370;9.006;2022-09-20T14:06:53;15.90;99.90
11242;DHT22;5678;52.370;9.006;2022-09-20T14:09:26;15.60;99.90
11242;DHT22;5678;52.370;9.006;2022-09-20T14:11:56;15.60;99.90
11242;DHT22;5678;52.370;9.006;2022-09-20T14:14:25;14.90;99.90
11242;DHT22;5678;52.370;9.006;2022-09-20T14:16:55;15.40;99.90
11242;DHT22;5678;52.370;9.006;2022-09-20T14:19:28;15.10;99.90
11242;DHT22;5678;52.370;9.006;2022-09-20T14:21:58;15.70;99.90
11242;DHT22;5678;52.370;9.006;2022-09-20T14:24:30;15.80;99.90
11242;DHT22;5678;52.370;9.006;2022-09-20T14:27:14;15.40;99.90
11242;DHT22;5678;52.370;9.006;2022-09-20T14:29:44;15.90;99.90
11242;DHT22;5678;52.370;9.006;2022-09-20T14:32:35;16.20;99.90
11242;DHT22;5678;52.370;9.006;2022-09-20T14:35:11;15.50;99.90
11242;DHT22;5678;52.370;9.006;2022-09-20T14:37:43;15.70;99.90
11242;DHT22;5678;52.370;9.006;2022-09-20T14:40:24;15.60;99.90
11242;DHT22;5678;52.370;9.006;2022-09-20T14:42:58;15.90;99.90
11242;DHT22;5678;52.370;9.006;2022-09-20T14:45:29;15.60;99.90
11242;DHT22;5678;52.370;9.006;2022-09-20T14:48:01;15.90;99.90
11242;DHT22;5678;52.370;9.006;2022-09-20T14:50:38;15.40;99.90
11242;DHT22;5678;52.370;9.006;2022-09-20T14:53:24;15.50;99.90
11242;DHT22;5678;52.370;9.006;2022-09-20T14:56:08;15.70;99.90
11242;DHT22;5678;52.370;9.006;2022-09-20T14:59:01;15.40;99.90
11242;DHT22;5678;52.370;9.006;2022-09-20T15:01:29;15.30;99.90
11242;DHT22;5678;52.370;9.006;2022-09-20T15:03:58;15.60;99.90
11242;DHT22;5678;52.370;9.006;2022-09-20T15:06:26;15.40;99.90
11242;DHT22;5678;52.370;9.006;2022-09-20T15:08:54;15.60;99.90
11242;DHT22;5678;52.370;9.006;2022-09-20T15:11:22;16.00;99.90
11242;DHT22;5678;52.370;9.006;2022-09-20T15:13:50;15.30;99.90
11242;DHT22;5678;52.370;9.006;2022-09-20T15:16:20;15.40;99.90
11242;DHT22;5678;52.370;9.006;2022-09-20T15:18:48;15.10;99.90
11242;DHT22;5678;52.370;9.006;2022-09-20T15:21:16;14.80;99.90
11242;DHT22;5678;52.370;9.006;2022-09-20T15:23:44;15.40;99.90
11242;DHT22;5678;52.370;9.006;2022-09-20T15:26:13;15.20;99.90
11242;DHT22;5678;52.370;9.006;2022-09-20T15:28:41;15.30;99.90
11242;DHT22;5678;52.370;9.006;2022-09-20T15:31:09;15.60;99.90
11242;DHT22;5678;52.370;9.006;2022-09-20T15:33:40;15.10;99.90
11242;DHT22;5678;52.370;9.006;2022-09-20T15:36:09;15.40;99.90
11242;DHT22;5678;52.370;9.006;2022-09-20T15:38:37;14.80;99.90
11242;DHT22;5678;52.370;9.006;2022-09-20T15:41:05;14.90;99.90
11242;DHT22;5678;52.370;9.006;2022-09-20T15:43:33;14.90;99.90
11242;DHT22;5678;52.370;9.006;2022-09-20T15:46:16;14.80;99.90
11242;DHT22;5678;52.370;9.006;2022-09-20T15:48:46;15.10;99.90
11242;DHT22;5678;52.370;9.006;2022-09-20T15:51:14;15.10;99.90
11242;DHT22;5678;52.370;9.006;2022-09-20T15:53:43;15.40;99.90
11242;DHT22;5678;52.370;9.006;2022-09-20T15:56:16;14.70;99.90
11242;DHT22;5678;52.370;9.006;2022-09-20T15:58:48;15.00;99.90
11242;DHT22;5678;52.370;9.006;2022-09-20T16:01:18;14.90;99.90
11242;DHT22;5678;52.370;9.006;2022-09-20T16:03:47;15.20;99.90
11242;DHT22;5678;52.370;9.006;2022-09-20T16:06:16;15.50;99.90
11242;DHT22;5678;52.370;9.006;2022-09-20T16:08:45;16.00;99.90
11242;DHT22;5678;52.370;9.006;2022-09-20T16:11:15;15.70;99.90
11242;DHT22;5678;52.370;9.006;2022-09-20T16:13:52;15.60;99.90
11242;DHT22;5678;52.370;9.006;2022-09-20T16:16:20;14.30;99.90
11242;DHT22;5678;52.370;9.006;2022-09-20T16:18:49;14.60;99.90
11242;DHT22;5678;52.370;9.006;2022-09-20T16:21:36;14.60;99.90
11242;DHT22;5678;52.370;9.006;2022-09-20T16:24:05;15.00;99.90
11242;DHT22;5678;52.370;9.006;2022-09-20T16:26:34;14.40;99.90
11242;DHT22;5678;52.370;9.006;2022-09-20T16:29:03;14.20;99.90
11242;DHT22;5678;52.370;9.006;2022-09-20T16:31:35;14.20;99.90
11242;DHT22;5678;52.370;9.006;2022-09-20T16:34:11;14.20;99.90
11242;DHT22;5678;52.370;9.006;2022-09-20T16:36:39;14.10;99.90
11242;DHT22;5678;52.370;9.006;2022-09-20T16:39:10;15.20;99.90
11242;DHT22;5678;52.370;9.006;2022-09-20T16:41:38;14.40;99.90
11242;DHT22;5678;52.370;9.006;2022-09-20T16:44:06;15.70;99.90
11242;DHT22;5678;52.370;9.006;2022-09-20T16:46:34;15.40;99.90
11242;DHT22;5678;52.370;9.006;2022-09-20T16:49:04;13.60;99.90
11242;DHT22;5678;52.370;9.006;2022-09-20T16:51:35;14.30;99.90
11242;DHT22;5678;52.370;9.006;2022-09-20T16:54:05;13.50;99.90
11242;DHT22;5678;52.370;9.006;2022-09-20T16:56:35;13.20;99.90
11242;DHT22;5678;52.370;9.006;2022-09-20T16:59:04;14.90;99.90
11242;DHT22;5678;52.370;9.006;2022-09-20T17:01:33;14.90;99.90
11242;DHT22;5678;52.370;9.006;2022-09-20T17:04:02;13.20;99.90
11242;DHT22;5678;52.370;9.006;2022-09-20T17:06:32;13.40;99.90
11242;DHT22;5678;52.370;9.006;2022-09-20T17:09:03;14.80;99.90
11242;DHT22;5678;52.370;9.006;2022-09-20T17:11:34;13.60;99.90
11242;DHT22;5678;52.370;9.006;2022-09-20T17:14:03;12.80;99.90
11242;DHT22;5678;52.370;9.006;2022-09-20T17:16:33;12.60;99.90
11242;DHT22;5678;52.370;9.006;2022-09-20T17:19:03;13.40;99.90
11242;DHT22;5678;52.370;9.006;2022-09-20T17:21:34;12.70;99.90
11242;DHT22;5678;52.370;9.006;2022-09-20T17:24:05;12.50;99.90
11242;DHT22;5678;52.370;9.006;2022-09-20T17:26:34;12.60;99.90
11242;DHT22;5678;52.370;9.006;2022-09-20T17:29:05;12.30;99.90
11242;DHT22;5678;52.370;9.006;2022-09-20T17:31:35;12.40;99.90
11242;DHT22;5678;52.370;9.006;2022-09-20T17:34:04;12.00;99.90